CheckWX is a tool to help pilots better visualize weather data.  It is not intended as a substitute for an official pre-flight weather briefing.

01:42:05 UTC

CYOW METAR
Ottawa / Macdonald-Cartier International Airport
Ottawa, Canada
Current

42 mins ago

CYOW 200100Z 22008KT 15SM FEW060 SCT260 28/22 A2971 RMK CU1CI3 CU TR SLP061 DENSITY ALT 2300FT
Observed
Jul-20 @ 01:00 UTC
Wind
  • 220° at 8 KTS
Visibility
15 SM
Flight Rules
VFR
Cloud Levels
  • Few at 6,000' AGL
  • Scattered at 26,000' AGL
Temperature
28°C / 82°F
Dewpoint
22°C / 72°F
Heat Index
30°C / 86°F
Humidity
70%
Altimeter
29.71" Hg
Pressure
1006.12 hPa
Previous

2 hours ago

CYOW 200000Z 23010G15KT 15SM FEW055 FEW120 SCT260 30/22 A2969 RMK CU1AC1CI3 CU TR AC TR SLP055 DENSITY ALT 2500FT
Observed
Jul-20 @ 00:00 UTC
Wind
  • 230° at 10 KTS
  • Gusting to 15 KTS
Visibility
15 SM
Flight Rules
VFR
Cloud Levels
  • Few at 5,500' AGL
  • Few at 12,000' AGL
  • Scattered at 26,000' AGL
Temperature
30°C / 86°F
Dewpoint
22°C / 72°F
Heat Index
33°C / 92°F
Humidity
62%
Altimeter
29.69" Hg
Pressure
1005.42 hPa
Previous

3 hours ago

CYOW 192300Z 23011G18KT 15SM FEW050 FEW120 SCT260 31/22 A2969 RMK CU1AC1CI3 AC TR SLP054 DENSITY ALT 2500FT
Observed
Jul-19 @ 23:00 UTC
Wind
  • 230° at 11 KTS
  • Gusting to 18 KTS
Visibility
15 SM
Flight Rules
VFR
Cloud Levels
  • Few at 5,000' AGL
  • Few at 12,000' AGL
  • Scattered at 26,000' AGL
Temperature
31°C / 88°F
Dewpoint
22°C / 72°F
Heat Index
35°C / 95°F
Humidity
59%
Altimeter
29.69" Hg
Pressure
1005.42 hPa